Time;durP1;ratioP1;P1;durP2;ratioP2;P2;SDS_P1;SDS_P2;PMS_P1;PMS_P2;Temp;Humidity;BMP_temperature;BMP_pressure;BME280_temperature;BME280_humidity;BME280_pressure;Samples;Min_cycle;Max_cycle;Signal;HPM_P1;HPM_P2
2023/07/20 00:01:16;;;;;;;1.83;1.00;;;18.30;66.40;;;;;;5073180;28;20040;-65
2023/07/20 00:03:42;;;;;;;1.60;0.98;;;18.30;66.40;;;;;;5071667;28;20479;-66
2023/07/20 00:06:08;;;;;;;1.35;0.70;;;18.20;66.40;;;;;;5073085;28;20040;-65
2023/07/20 00:08:33;;;;;;;1.10;0.80;;;18.20;66.50;;;;;;5074423;28;20033;-65
2023/07/20 00:10:59;;;;;;;2.22;0.90;;;18.20;66.50;;;;;;5073268;28;20098;-65
2023/07/20 00:13:25;;;;;;;1.30;0.80;;;18.20;66.50;;;;;;5073012;28;20541;-65
2023/07/20 00:15:52;;;;;;;1.05;0.70;;;18.20;66.60;;;;;;5072724;28;20054;-66
2023/07/20 00:18:21;;;;;;;0.98;0.70;;;18.20;66.60;;;;;;5072603;28;20082;-69
2023/07/20 00:20:47;;;;;;;1.13;0.90;;;18.20;66.70;;;;;;5072807;28;20453;-69
2023/07/20 00:23:12;;;;;;;1.00;0.88;;;18.10;66.70;;;;;;5072597;28;20036;-69
2023/07/20 00:25:38;;;;;;;1.00;0.90;;;18.10;66.60;;;;;;5072765;28;20037;-69
2023/07/20 00:28:04;;;;;;;1.67;0.77;;;18.10;66.70;;;;;;5072496;28;20048;-69
2023/07/20 00:30:30;;;;;;;1.00;0.88;;;18.10;66.70;;;;;;5072569;28;20047;-69
2023/07/20 00:32:55;;;;;;;1.33;0.90;;;18.10;66.70;;;;;;5055846;28;20135;-69
2023/07/20 00:35:21;;;;;;;1.42;0.90;;;18.10;66.80;;;;;;5056205;28;20181;-69
2023/07/20 00:37:47;;;;;;;1.48;1.02;;;18.10;66.80;;;;;;5071861;28;20502;-69
2023/07/20 00:40:12;;;;;;;1.00;0.77;;;18.10;66.90;;;;;;5055409;28;20051;-69
2023/07/20 00:42:38;;;;;;;0.88;0.70;;;18.10;66.80;;;;;;5072305;28;20063;-69
2023/07/20 00:45:05;;;;;;;1.42;0.93;;;18.10;66.80;;;;;;5072575;28;20036;-69
2023/07/20 00:47:32;;;;;;;1.20;0.90;;;18.10;66.90;;;;;;5072350;28;20095;-69
2023/07/20 00:49:58;;;;;;;0.88;0.80;;;18.00;66.90;;;;;;5072630;28;20040;-70
2023/07/20 00:52:25;;;;;;;1.58;1.00;;;18.00;66.80;;;;;;5072591;28;20506;-69
2023/07/20 00:54:52;;;;;;;1.00;0.70;;;18.10;67.10;;;;;;5053069;28;20502;-70
2023/07/20 00:57:18;;;;;;;1.20;0.77;;;18.00;67.00;;;;;;5055898;28;20392;-69
2023/07/20 00:59:44;;;;;;;1.35;0.82;;;18.00;67.00;;;;;;5055119;28;20054;-69
2023/07/20 01:02:10;;;;;;;0.70;0.63;;;18.00;67.00;;;;;;5072222;28;20045;-69
2023/07/20 01:04:37;;;;;;;1.17;0.93;;;18.00;66.80;;;;;;5071874;28;20119;-70
2023/07/20 01:07:24;;;;;;;1.42;1.00;;;18.00;66.70;;;;;;5069954;28;20036;-69
2023/07/20 01:09:57;;;;;;;1.27;0.90;;;18.00;66.50;;;;;;5054617;28;20044;-69
2023/07/20 01:12:40;;;;;;;2.33;1.05;;;17.90;66.50;;;;;;5071910;28;20477;-70
2023/07/20 01:15:07;;;;;;;1.50;1.30;;;17.90;66.50;;;;;;5072385;28;20437;-69
2023/07/20 01:17:34;;;;;;;1.20;1.00;;;17.90;66.40;;;;;;5071952;28;20075;-69
2023/07/20 01:20:00;;;;;;;1.27;0.90;;;17.90;66.40;;;;;;5071862;28;20044;-69
2023/07/20 01:22:47;;;;;;;1.48;1.20;;;17.90;66.40;;;;;;5069124;28;20037;-69
2023/07/20 01:26:03;;;;;;;1.55;1.02;;;17.90;66.40;;;;;;5071362;28;20040;-69
2023/07/20 01:28:56;;;;;;;2.00;1.40;;;17.80;66.00;;;;;;5064689;28;20052;-69
2023/07/20 01:31:27;;;;;;;1.88;1.17;;;17.80;66.20;;;;;;5068989;28;20077;-69
2023/07/20 01:33:57;;;;;;;1.40;1.10;;;17.70;66.20;;;;;;5072176;28;20036;-70
2023/07/20 01:36:26;;;;;;;1.42;1.15;;;17.70;66.20;;;;;;5071320;28;20079;-70
2023/07/20 01:38:52;;;;;;;1.67;1.20;;;17.70;66.20;;;;;;5068857;28;20040;-70
2023/07/20 01:41:18;;;;;;;2.20;1.17;;;17.70;66.10;;;;;;5070886;28;20037;-70
2023/07/20 01:43:44;;;;;;;2.70;1.60;;;17.70;66.20;;;;;;5070654;28;20043;-70
2023/07/20 01:46:10;;;;;;;1.77;1.20;;;17.60;66.10;;;;;;5070874;28;20040;-70
2023/07/20 01:48:35;;;;;;;1.63;1.10;;;17.60;66.50;;;;;;5070747;28;20063;-70
2023/07/20 01:51:01;;;;;;;1.92;1.40;;;17.60;66.10;;;;;;5071889;28;20480;-70
2023/07/20 01:53:27;;;;;;;3.10;1.48;;;17.60;66.00;;;;;;5070863;28;20094;-65
2023/07/20 01:55:54;;;;;;;1.55;1.30;;;17.50;66.10;;;;;;5070718;28;20040;-65
2023/07/20 01:58:20;;;;;;;3.30;1.98;;;17.50;66.10;;;;;;5070522;28;20062;-65
2023/07/20 02:00:46;;;;;;;1.80;1.48;;;17.50;66.20;;;;;;5070578;28;20480;-65
2023/07/20 02:03:14;;;;;;;2.05;1.58;;;17.40;66.20;;;;;;5068124;28;20037;-65
2023/07/20 02:05:42;;;;;;;1.60;1.30;;;17.30;66.10;;;;;;5070889;28;20048;-65
2023/07/20 02:08:08;;;;;;;1.90;1.40;;;17.40;66.30;;;;;;5071069;28;20036;-65
2023/07/20 02:10:34;;;;;;;2.22;1.40;;;17.30;66.20;;;;;;5053587;28;20059;-66
2023/07/20 02:12:59;;;;;;;1.50;1.25;;;17.20;66.20;;;;;;5070814;28;20101;-65
2023/07/20 02:15:25;;;;;;;2.17;1.48;;;17.20;66.20;;;;;;5054061;28;20491;-65
2023/07/20 02:17:51;;;;;;;2.95;1.88;;;17.20;66.20;;;;;;5070741;28;20040;-65
2023/07/20 02:20:17;;;;;;;1.98;1.45;;;17.10;66.20;;;;;;5070388;28;20400;-65
2023/07/20 02:22:43;;;;;;;1.70;1.50;;;17.10;66.30;;;;;;5053798;28;20036;-65
2023/07/20 02:25:09;;;;;;;1.75;1.42;;;17.10;66.40;;;;;;5068879;28;20097;-65
2023/07/20 02:27:35;;;;;;;1.40;1.17;;;17.10;66.40;;;;;;5070506;28;20040;-66
2023/07/20 02:30:01;;;;;;;1.27;0.88;;;17.00;66.40;;;;;;5070112;28;20491;-65
2023/07/20 02:32:27;;;;;;;1.48;1.00;;;17.00;66.40;;;;;;5070612;28;20052;-66
2023/07/20 02:34:53;;;;;;;2.28;1.10;;;17.00;66.50;;;;;;5070383;28;20051;-65
2023/07/20 02:37:18;;;;;;;1.58;1.13;;;16.90;66.50;;;;;;5070300;28;20045;-65
2023/07/20 02:39:44;;;;;;;1.00;0.70;;;16.90;66.60;;;;;;5071657;28;20049;-65
2023/07/20 02:42:10;;;;;;;0.70;0.65;;;16.80;66.50;;;;;;5070498;28;20032;-65
2023/07/20 02:44:35;;;;;;;1.48;0.57;;;16.80;66.60;;;;;;5070470;28;20426;-65
2023/07/20 02:47:01;;;;;;;0.63;0.57;;;16.80;66.60;;;;;;5070174;28;20048;-65
2023/07/20 02:49:27;;;;;;;0.63;0.57;;;16.80;66.60;;;;;;5070653;28;20068;-65
2023/07/20 02:51:53;;;;;;;0.77;0.63;;;16.80;66.60;;;;;;5051194;28;20534;-65
2023/07/20 02:54:19;;;;;;;0.88;0.70;;;16.70;66.50;;;;;;5070038;28;20491;-65
2023/07/20 02:56:44;;;;;;;1.15;0.80;;;16.70;66.60;;;;;;5070097;28;20033;-65
2023/07/20 02:59:10;;;;;;;0.90;0.70;;;16.70;66.60;;;;;;5068115;28;20043;-65
2023/07/20 03:01:36;;;;;;;1.05;0.82;;;16.60;66.50;;;;;;5073827;28;20048;-65
2023/07/20 03:04:02;;;;;;;1.48;0.52;;;16.60;66.60;;;;;;5057690;28;20043;-65
2023/07/20 03:06:28;;;;;;;0.98;0.80;;;16.60;66.60;;;;;;5074470;28;20052;-65
2023/07/20 03:08:53;;;;;;;1.35;0.80;;;16.50;66.60;;;;;;5074492;28;20044;-65
2023/07/20 03:11:23;;;;;;;0.70;0.60;;;16.50;66.70;;;;;;5074292;28;20041;-65
2023/07/20 03:13:48;;;;;;;0.80;0.68;;;16.50;66.70;;;;;;5071897;28;20383;-65
2023/07/20 03:16:19;;;;;;;1.60;0.60;;;16.50;66.70;;;;;;5073579;28;20044;-65
2023/07/20 03:18:44;;;;;;;1.50;0.80;;;16.50;66.80;;;;;;5074286;28;20502;-65
2023/07/20 03:21:11;;;;;;;1.63;1.05;;;16.40;66.80;;;;;;5056828;28;20056;-65
2023/07/20 03:23:37;;;;;;;0.80;0.60;;;16.40;66.80;;;;;;5073777;28;20484;-66
2023/07/20 03:26:03;;;;;;;1.00;0.90;;;16.40;66.80;;;;;;5073598;28;20043;-65
2023/07/20 03:28:29;;;;;;;0.80;0.70;;;16.30;66.80;;;;;;5074053;28;20028;-65
2023/07/20 03:30:58;;;;;;;1.05;0.85;;;16.30;66.80;;;;;;5073774;28;20124;-65
2023/07/20 03:33:28;;;;;;;1.33;1.02;;;16.30;66.80;;;;;;5073614;28;20063;-65
2023/07/20 03:35:55;;;;;;;0.88;0.80;;;16.30;66.80;;;;;;5073830;28;20040;-65
2023/07/20 03:38:21;;;;;;;1.02;0.90;;;16.30;66.90;;;;;;5073669;28;20040;-65
2023/07/20 03:40:58;;;;;;;1.30;0.70;;;16.20;66.90;;;;;;5073108;28;20495;-65
2023/07/20 03:43:25;;;;;;;1.15;0.90;;;16.20;66.90;;;;;;5053263;28;20055;-65
2023/07/20 03:45:52;;;;;;;1.45;0.90;;;16.20;66.90;;;;;;5073701;28;20044;-65
2023/07/20 03:48:19;;;;;;;1.83;0.90;;;16.20;66.90;;;;;;5073371;28;20029;-65
2023/07/20 03:50:46;;;;;;;1.13;0.90;;;16.10;66.80;;;;;;5073406;28;20152;-65
2023/07/20 03:53:15;;;;;;;0.88;0.85;;;16.10;66.80;;;;;;5071815;28;20086;-65
2023/07/20 03:55:44;;;;;;;0.98;0.82;;;16.10;66.70;;;;;;5073156;28;20036;-65
2023/07/20 03:58:09;;;;;;;1.20;0.80;;;16.10;66.70;;;;;;5073498;28;20091;-65
2023/07/20 04:00:35;;;;;;;1.23;0.95;;;16.10;66.70;;;;;;5073337;28;20499;-65
2023/07/20 04:03:01;;;;;;;0.90;0.77;;;16.00;66.60;;;;;;5069789;28;20468;-65
2023/07/20 04:05:27;;;;;;;1.05;0.60;;;16.00;66.50;;;;;;5073091;28;20040;-65
2023/07/20 04:07:52;;;;;;;1.08;0.80;;;16.00;66.50;;;;;;5072877;28;20115;-65
2023/07/20 04:10:19;;;;;;;0.95;0.70;;;15.90;66.40;;;;;;5072756;28;20056;-65
2023/07/20 04:12:46;;;;;;;1.00;0.73;;;15.90;66.40;;;;;;5073403;28;20045;-65
2023/07/20 04:15:13;;;;;;;0.80;0.70;;;15.90;66.50;;;;;;5073291;28;20102;-66
2023/07/20 04:17:39;;;;;;;1.00;0.90;;;15.90;66.50;;;;;;5070571;28;20046;-65
2023/07/20 04:20:06;;;;;;;1.23;0.80;;;15.90;66.70;;;;;;5056231;28;20059;-65
2023/07/20 04:22:32;;;;;;;0.73;0.60;;;15.90;66.70;;;;;;5072973;28;20048;-65
2023/07/20 04:24:57;;;;;;;1.05;0.68;;;15.80;66.70;;;;;;5072860;28;20036;-65
2023/07/20 04:27:23;;;;;;;1.27;0.90;;;15.80;66.80;;;;;;5074166;28;20572;-65
2023/07/20 04:29:49;;;;;;;1.00;0.80;;;15.80;66.80;;;;;;5072939;28;20040;-65
2023/07/20 04:32:14;;;;;;;0.90;0.80;;;15.70;66.80;;;;;;5072758;28;20388;-65
2023/07/20 04:34:41;;;;;;;0.77;0.57;;;15.80;66.90;;;;;;5072349;28;20072;-65
2023/07/20 04:37:06;;;;;;;0.88;0.57;;;15.80;66.90;;;;;;5056036;28;20044;-65
2023/07/20 04:39:32;;;;;;;1.15;0.80;;;15.80;67.00;;;;;;5055952;28;20041;-65
2023/07/20 04:41:58;;;;;;;0.93;0.75;;;15.70;66.90;;;;;;5072502;28;20103;-65
2023/07/20 04:44:24;;;;;;;0.68;0.50;;;15.70;67.00;;;;;;5072594;28;20040;-65
2023/07/20 04:46:50;;;;;;;1.38;0.77;;;15.70;67.10;;;;;;5072231;28;20115;-65
2023/07/20 04:49:15;;;;;;;0.65;0.52;;;15.70;67.20;;;;;;5072402;28;20040;-65
2023/07/20 04:51:41;;;;;;;0.93;0.73;;;15.70;67.20;;;;;;5072421;28;20563;-66
2023/07/20 04:54:07;;;;;;;1.13;0.70;;;15.70;67.30;;;;;;5072571;28;20058;-66
2023/07/20 04:56:33;;;;;;;1.30;0.90;;;15.70;67.40;;;;;;5069719;28;20403;-67
2023/07/20 04:58:59;;;;;;;0.90;0.80;;;15.70;67.50;;;;;;5069055;28;20051;-66
2023/07/20 05:01:26;;;;;;;1.13;0.85;;;15.70;67.70;;;;;;5054785;28;20040;-66
2023/07/20 05:03:52;;;;;;;1.63;1.33;;;15.70;67.80;;;;;;5072252;28;20391;-66
2023/07/20 05:06:18;;;;;;;2.28;1.60;;;15.70;67.90;;;;;;5072457;28;20036;-66
2023/07/20 05:08:44;;;;;;;3.00;1.90;;;15.70;68.00;;;;;;5073393;28;20043;-66
2023/07/20 05:11:10;;;;;;;3.35;2.22;;;15.70;68.10;;;;;;5072767;28;20043;-66
2023/07/20 05:13:36;;;;;;;2.90;2.42;;;15.60;68.60;;;;;;5056669;28;20049;-65
2023/07/20 05:16:02;;;;;;;3.67;2.92;;;15.70;69.80;;;;;;5073038;28;20050;-66
2023/07/20 05:18:28;;;;;;;4.38;2.70;;;15.80;70.70;;;;;;5059639;28;20120;-66
2023/07/20 05:20:54;;;;;;;3.78;2.38;;;16.00;71.30;;;;;;5038635;28;20057;-66
2023/07/20 05:23:21;;;;;;;4.00;2.40;;;16.20;71.30;;;;;;5043823;28;20040;-70
2023/07/20 05:25:53;;;;;;;4.35;2.30;;;16.50;71.00;;;;;;5052485;28;20037;-70
2023/07/20 05:28:19;;;;;;;3.83;2.08;;;16.90;70.40;;;;;;5052481;28;20090;-69
2023/07/20 05:30:44;;;;;;;3.58;2.60;;;17.30;69.50;;;;;;5052819;28;20132;-69
2023/07/20 05:33:10;;;;;;;2.88;1.95;;;17.80;68.60;;;;;;5052793;28;20476;-70
2023/07/20 05:35:37;;;;;;;2.90;2.00;;;18.20;67.50;;;;;;5052561;28;20056;-71
2023/07/20 05:38:05;;;;;;;4.22;2.00;;;18.60;66.10;;;;;;5052509;28;20049;-71
2023/07/20 05:40:30;;;;;;;4.28;2.10;;;19.00;65.20;;;;;;5052256;28;20052;-69
2023/07/20 05:42:56;;;;;;;2.30;1.63;;;19.40;63.90;;;;;;5052452;28;20044;-66
2023/07/20 05:45:22;;;;;;;2.90;1.70;;;19.80;62.80;;;;;;5051992;28;20397;-66
2023/07/20 05:47:48;;;;;;;3.03;1.65;;;20.20;61.70;;;;;;5052401;28;20037;-66
2023/07/20 05:50:14;;;;;;;2.97;1.55;;;20.60;60.50;;;;;;5052448;28;20052;-67
2023/07/20 05:52:40;;;;;;;5.45;1.60;;;21.00;59.50;;;;;;5053458;28;20080;-66
2023/07/20 05:55:06;;;;;;;2.35;1.25;;;21.40;58.80;;;;;;5052240;28;20068;-66
2023/07/20 05:57:32;;;;;;;4.07;1.67;;;21.80;58.00;;;;;;5052171;28;20052;-66
2023/07/20 05:59:58;;;;;;;2.00;1.30;;;22.20;57.40;;;;;;5052443;28;20042;-66
2023/07/20 06:02:24;;;;;;;2.10;1.45;;;22.60;56.80;;;;;;5052186;28;20068;-66
2023/07/20 06:04:50;;;;;;;3.15;1.45;;;23.10;56.20;;;;;;5039132;28;20047;-67
2023/07/20 06:07:15;;;;;;;1.60;1.27;;;23.50;55.10;;;;;;5052337;28;20049;-66
2023/07/20 06:09:41;;;;;;;2.20;1.67;;;23.80;54.00;;;;;;5052054;28;20044;-69
2023/07/20 06:12:08;;;;;;;2.25;1.70;;;24.10;53.50;;;;;;5051720;28;20037;-69
2023/07/20 06:14:34;;;;;;;2.65;1.90;;;24.50;52.40;;;;;;5068411;28;20610;-69
2023/07/20 06:16:59;;;;;;;3.10;1.80;;;24.80;51.70;;;;;;5051548;28;20112;-70
2023/07/20 06:19:25;;;;;;;3.30;1.63;;;25.10;50.70;;;;;;5055347;28;20098;-69
2023/07/20 06:21:51;;;;;;;2.38;1.60;;;25.30;49.70;;;;;;5074965;28;20044;-69
2023/07/20 06:24:17;;;;;;;2.17;1.33;;;25.50;49.80;;;;;;5075107;28;20491;-69
2023/07/20 06:26:43;;;;;;;1.88;1.33;;;25.70;49.10;;;;;;5075216;28;20076;-69
2023/07/20 06:29:09;;;;;;;2.05;1.20;;;26.00;48.70;;;;;;5075367;28;20113;-70
2023/07/20 06:31:35;;;;;;;4.75;1.33;;;26.20;48.00;;;;;;5074996;28;20075;-69
2023/07/20 06:34:01;;;;;;;2.60;1.00;;;26.40;47.10;;;;;;5074229;28;20144;-70
2023/07/20 06:36:27;;;;;;;2.38;1.00;;;26.60;46.80;;;;;;5075393;28;20044;-70
2023/07/20 06:38:53;;;;;;;1.20;0.63;;;26.80;46.00;;;;;;5075138;28;20510;-69
2023/07/20 06:41:19;;;;;;;2.10;1.10;;;27.00;45.20;;;;;;5074970;28;20044;-70
2023/07/20 06:43:45;;;;;;;2.95;0.80;;;27.20;44.70;;;;;;5093198;28;20122;-69
2023/07/20 06:46:11;;;;;;;1.65;0.52;;;27.40;44.20;;;;;;5064819;28;20047;-70
2023/07/20 06:48:37;;;;;;;1.70;0.65;;;27.50;43.90;;;;;;5069905;28;20122;-70
2023/07/20 06:51:02;;;;;;;3.60;0.90;;;27.70;43.80;;;;;;5074711;28;20044;-70
2023/07/20 06:53:29;;;;;;;1.00;0.50;;;27.80;43.00;;;;;;5075197;28;20498;-69
2023/07/20 06:55:56;;;;;;;2.30;0.80;;;27.90;42.90;;;;;;5074524;28;20535;-70
2023/07/20 06:58:23;;;;;;;1.33;0.60;;;27.90;42.10;;;;;;5057917;28;20048;-69
2023/07/20 07:00:49;;;;;;;1.95;0.57;;;28.00;42.10;;;;;;5074819;28;20036;-70
2023/07/20 07:03:15;;;;;;;1.80;0.50;;;28.00;41.80;;;;;;5074990;28;20051;-70
2023/07/20 07:05:40;;;;;;;0.88;0.50;;;28.10;41.80;;;;;;5074694;28;20119;-70
2023/07/20 07:08:06;;;;;;;1.48;0.60;;;28.20;41.20;;;;;;5057039;28;20051;-70
2023/07/20 07:10:35;;;;;;;1.70;0.60;;;28.20;41.40;;;;;;5074505;28;20036;-70
2023/07/20 07:13:01;;;;;;;1.90;0.68;;;28.20;41.10;;;;;;5074450;28;20089;-69
2023/07/20 07:15:27;;;;;;;1.42;0.50;;;28.20;41.30;;;;;;5046771;28;20080;-69
2023/07/20 07:17:53;;;;;;;1.00;0.60;;;28.20;40.90;;;;;;5070369;28;20040;-70
2023/07/20 07:20:19;;;;;;;2.60;0.82;;;28.10;40.30;;;;;;5057245;28;20093;-70
2023/07/20 07:22:45;;;;;;;0.80;0.40;;;28.00;40.60;;;;;;5074659;28;20127;-70
2023/07/20 07:25:11;;;;;;;2.85;0.60;;;27.80;40.20;;;;;;5074402;28;20036;-69
2023/07/20 07:27:37;;;;;;;1.02;0.60;;;27.70;40.30;;;;;;5074353;28;20036;-69
2023/07/20 07:30:03;;;;;;;1.75;0.70;;;27.50;40.60;;;;;;5074433;28;20498;-69
2023/07/20 07:32:29;;;;;;;1.05;0.40;;;27.30;40.40;;;;;;5074544;28;20373;-69
2023/07/20 07:34:55;;;;;;;1.75;0.70;;;27.10;40.40;;;;;;5074383;28;20047;-69
2023/07/20 07:37:21;;;;;;;1.00;0.50;;;26.90;40.70;;;;;;5074319;28;20403;-69
2023/07/20 07:39:47;;;;;;;1.33;0.47;;;26.70;41.00;;;;;;5057538;28;20051;-69
2023/07/20 07:42:13;;;;;;;2.38;0.60;;;26.40;41.20;;;;;;5074391;28;20047;-69
2023/07/20 07:44:38;;;;;;;1.75;0.90;;;26.20;41.40;;;;;;5040794;28;20040;-69
2023/07/20 07:47:04;;;;;;;2.22;1.13;;;26.00;41.50;;;;;;5077895;28;20036;-69
2023/07/20 07:49:31;;;;;;;2.03;0.75;;;25.80;42.00;;;;;;5078082;28;20036;-69
2023/07/20 07:51:57;;;;;;;2.67;0.80;;;25.50;42.80;;;;;;5073945;28;20398;-70
2023/07/20 07:54:22;;;;;;;2.03;0.50;;;25.30;43.50;;;;;;5061018;28;20131;-69
2023/07/20 07:56:48;;;;;;;1.35;0.50;;;25.10;42.80;;;;;;5078017;28;20039;-69
2023/07/20 07:59:14;;;;;;;0.85;0.52;;;24.90;43.20;;;;;;5078038;28;20078;-69
2023/07/20 08:01:40;;;;;;;1.75;0.60;;;24.70;43.70;;;;;;5077728;28;20040;-69
2023/07/20 08:04:05;;;;;;;0.90;0.50;;;24.50;44.00;;;;;;5077989;28;20036;-69
2023/07/20 08:06:31;;;;;;;1.50;0.70;;;24.40;44.20;;;;;;5060985;28;20079;-69
2023/07/20 08:08:57;;;;;;;1.83;0.70;;;24.20;44.60;;;;;;5078034;28;20428;-70
2023/07/20 08:11:24;;;;;;;2.60;0.77;;;24.10;45.20;;;;;;5077950;28;20036;-69
2023/07/20 08:13:49;;;;;;;2.80;0.80;;;24.00;45.60;;;;;;5061142;28;20363;-69
2023/07/20 08:16:15;;;;;;;2.58;0.75;;;23.80;45.70;;;;;;5077516;28;20055;-69
2023/07/20 08:18:41;;;;;;;1.17;0.50;;;23.70;46.10;;;;;;5077665;28;20398;-69
2023/07/20 08:21:07;;;;;;;1.25;0.93;;;23.60;46.10;;;;;;5077098;28;20052;-69
2023/07/20 08:23:32;;;;;;;2.47;0.60;;;23.40;46.30;;;;;;5077510;28;20032;-70
2023/07/20 08:25:58;;;;;;;1.75;0.50;;;23.30;46.90;;;;;;5077475;28;20058;-70
2023/07/20 08:28:26;;;;;;;2.20;0.80;;;23.20;47.40;;;;;;5077027;28;20081;-70
2023/07/20 08:30:52;;;;;;;2.60;0.88;;;23.20;47.20;;;;;;5060624;28;20042;-70
2023/07/20 08:33:19;;;;;;;2.53;0.80;;;23.10;47.90;;;;;;5075771;28;20053;-70
2023/07/20 08:35:45;;;;;;;1.45;0.70;;;23.20;47.80;;;;;;5077548;28;20044;-70
2023/07/20 08:38:12;;;;;;;2.15;0.80;;;23.20;48.00;;;;;;5077466;28;20394;-71
2023/07/20 08:40:45;;;;;;;1.67;0.75;;;23.30;47.20;;;;;;5043839;28;20562;-70
2023/07/20 08:43:12;;;;;;;2.97;1.10;;;23.50;46.50;;;;;;5077122;28;20048;-70
2023/07/20 08:45:40;;;;;;;2.65;0.80;;;23.60;45.70;;;;;;5060508;28;20044;-70
2023/07/20 08:48:07;;;;;;;2.78;0.95;;;23.80;46.50;;;;;;5076739;28;20048;-71
2023/07/20 08:50:34;;;;;;;1.98;0.50;;;23.90;44.90;;;;;;5060190;28;20045;-70
2023/07/20 08:53:01;;;;;;;1.35;0.50;;;24.00;45.90;;;;;;5077208;28;20364;-71
2023/07/20 08:55:27;;;;;;;1.95;0.50;;;24.10;45.30;;;;;;5060299;28;20126;-70
2023/07/20 08:57:55;;;;;;;2.05;0.95;;;24.20;44.10;;;;;;5075733;28;20096;-71
2023/07/20 09:00:22;;;;;;;2.95;0.70;;;24.30;44.10;;;;;;5076790;28;20572;-70
2023/07/20 09:02:51;;;;;;;1.13;0.50;;;24.30;44.20;;;;;;5063452;28;20040;-70
2023/07/20 09:05:17;;;;;;;1.85;0.60;;;24.30;43.80;;;;;;5067242;28;20040;-70
2023/07/20 09:07:43;;;;;;;0.63;0.50;;;24.30;42.80;;;;;;5076702;28;20071;-71
2023/07/20 09:10:10;;;;;;;1.23;0.50;;;24.20;43.00;;;;;;5076304;28;20141;-70
2023/07/20 09:12:41;;;;;;;2.55;0.63;;;24.20;43.50;;;;;;5076455;28;20052;-69
2023/07/20 09:15:08;;;;;;;1.50;0.50;;;24.20;43.20;;;;;;5059937;28;20051;-69
2023/07/20 09:17:34;;;;;;;4.00;0.82;;;24.20;43.30;;;;;;5059657;28;20040;-69
2023/07/20 09:20:07;;;;;;;2.67;0.93;;;24.10;43.30;;;;;;5076176;28;20074;-69
2023/07/20 09:22:34;;;;;;;1.67;0.60;;;24.10;43.80;;;;;;5075903;28;20074;-69
2023/07/20 09:25:00;;;;;;;1.90;0.65;;;24.10;43.90;;;;;;5059217;28;20042;-69
2023/07/20 09:27:36;;;;;;;2.22;0.75;;;24.10;44.00;;;;;;5076216;28;20039;-70
2023/07/20 09:30:03;;;;;;;2.45;0.60;;;24.10;43.60;;;;;;5075659;28;20040;-70
2023/07/20 09:32:29;;;;;;;1.65;0.60;;;24.10;43.60;;;;;;5059242;28;20046;-70
2023/07/20 09:34:55;;;;;;;1.90;0.60;;;24.10;43.50;;;;;;5076139;28;20040;-70
2023/07/20 09:37:22;;;;;;;1.73;0.68;;;24.10;43.80;;;;;;5075648;28;20510;-70
2023/07/20 09:39:49;;;;;;;1.20;0.50;;;24.20;43.90;;;;;;5076079;28;20072;-70
2023/07/20 09:42:15;;;;;;;2.65;0.82;;;24.20;43.70;;;;;;5075929;28;20083;-70
2023/07/20 09:44:43;;;;;;;1.40;0.50;;;24.30;42.80;;;;;;5075958;28;20036;-70
2023/07/20 09:47:09;;;;;;;1.65;0.50;;;24.30;41.90;;;;;;5075799;28;20071;-70
2023/07/20 09:49:44;;;;;;;2.05;0.50;;;24.40;41.10;;;;;;5075877;28;20044;-70
2023/07/20 09:52:11;;;;;;;0.93;0.55;;;24.40;40.40;;;;;;5075265;28;20177;-70
2023/07/20 09:54:42;;;;;;;0.98;0.40;;;24.40;40.30;;;;;;5075729;28;20047;-70
2023/07/20 09:57:12;;;;;;;1.85;0.55;;;24.40;40.50;;;;;;5075741;28;20055;-70
2023/07/20 09:59:38;;;;;;;2.90;0.68;;;24.40;41.50;;;;;;5075792;28;20427;-70
2023/07/20 10:02:12;;;;;;;0.60;0.45;;;24.40;41.80;;;;;;5074059;28;20044;-70
2023/07/20 10:04:39;;;;;;;0.30;0.30;;;24.40;41.70;;;;;;5074894;28;20044;-70
2023/07/20 10:07:11;;;;;;;3.03;0.63;;;24.50;41.40;;;;;;5075391;28;20036;-70
2023/07/20 10:09:40;;;;;;;0.80;0.50;;;24.60;41.10;;;;;;5070904;28;20044;-70
2023/07/20 10:12:07;;;;;;;1.63;0.75;;;24.70;40.30;;;;;;5075351;28;20079;-70
2023/07/20 10:14:38;;;;;;;2.00;0.60;;;24.80;39.00;;;;;;5075652;28;20070;-70
2023/07/20 10:17:07;;;;;;;0.98;0.50;;;24.80;39.00;;;;;;5058223;28;20028;-70
2023/07/20 10:19:41;;;;;;;1.38;0.52;;;24.90;39.30;;;;;;5075296;28;20038;-70
2023/07/20 10:22:13;;;;;;;2.17;0.70;;;25.00;39.40;;;;;;5075236;28;20047;-70
2023/07/20 10:24:41;;;;;;;0.60;0.40;;;25.10;39.40;;;;;;5093342;28;20119;-70
2023/07/20 10:27:07;;;;;;;0.57;0.40;;;25.20;38.60;;;;;;5057864;28;20046;-70
2023/07/20 10:29:33;;;;;;;1.60;0.52;;;25.30;38.60;;;;;;5074130;28;20028;-70
2023/07/20 10:32:00;;;;;;;0.77;0.45;;;25.40;38.50;;;;;;5055978;28;20036;-70
2023/07/20 10:34:25;;;;;;;2.08;0.70;;;25.50;38.40;;;;;;5074490;28;20042;-71
2023/07/20 10:36:54;;;;;;;2.28;0.65;;;25.50;38.20;;;;;;5050339;28;20032;-70
2023/07/20 10:39:28;;;;;;;2.25;0.82;;;25.60;38.50;;;;;;5074927;28;20055;-70
2023/07/20 10:42:07;;;;;;;1.30;0.40;;;25.70;38.60;;;;;;5074917;28;20043;-70
2023/07/20 10:44:34;;;;;;;1.52;0.50;;;25.80;38.80;;;;;;5074478;28;20119;-70
2023/07/20 10:47:01;;;;;;;1.48;0.43;;;25.90;38.50;;;;;;5075167;28;20071;-70
2023/07/20 10:49:28;;;;;;;1.00;0.50;;;26.00;37.70;;;;;;5074798;28;20032;-70
2023/07/20 10:51:59;;;;;;;2.28;0.60;;;26.00;38.20;;;;;;5074861;28;20046;-70
2023/07/20 10:54:27;;;;;;;2.88;0.60;;;26.10;38.70;;;;;;5074998;28;20048;-68
2023/07/20 10:56:54;;;;;;;1.30;0.50;;;26.20;38.50;;;;;;5074963;28;20048;-68
2023/07/20 10:59:23;;;;;;;1.88;0.40;;;26.30;38.40;;;;;;5074425;28;20483;-68
2023/07/20 11:01:50;;;;;;;1.27;0.40;;;26.40;37.40;;;;;;5074704;28;20036;-67
2023/07/20 11:04:18;;;;;;;1.30;0.57;;;26.40;37.60;;;;;;5074580;28;20048;-70
2023/07/20 11:06:54;;;;;;;2.38;0.57;;;26.50;37.40;;;;;;5074606;28;20040;-70
2023/07/20 11:09:25;;;;;;;0.70;0.40;;;26.50;37.10;;;;;;5059395;28;20047;-68
2023/07/20 11:12:13;;;;;;;0.40;0.40;;;26.50;37.60;;;;;;5057682;28;20074;-70
2023/07/20 11:14:52;;;;;;;1.83;0.50;;;26.50;37.80;;;;;;5058304;28;20047;-70
2023/07/20 11:17:22;;;;;;;0.90;0.50;;;26.50;37.40;;;;;;5074801;28;20122;-70
2023/07/20 11:19:49;;;;;;;2.15;0.73;;;26.50;37.40;;;;;;5074450;28;20138;-70
2023/07/20 11:22:17;;;;;;;2.42;0.80;;;26.40;37.90;;;;;;5078372;28;20097;-70
2023/07/20 11:24:43;;;;;;;0.77;0.40;;;26.40;38.10;;;;;;5078202;28;20085;-70
2023/07/20 11:27:09;;;;;;;2.15;0.50;;;26.40;38.20;;;;;;5078585;28;20040;-70
2023/07/20 11:29:37;;;;;;;1.65;0.50;;;26.30;38.60;;;;;;5061901;28;20548;-70
2023/07/20 11:32:03;;;;;;;1.88;0.77;;;26.30;38.50;;;;;;5078405;28;20127;-70
2023/07/20 11:34:31;;;;;;;1.90;0.60;;;26.20;38.80;;;;;;5078360;28;20055;-70
2023/07/20 11:36:57;;;;;;;2.53;0.80;;;26.20;38.60;;;;;;5077542;28;20105;-70
2023/07/20 11:39:25;;;;;;;1.52;0.60;;;26.10;38.10;;;;;;5076958;28;20036;-70
2023/07/20 11:41:56;;;;;;;2.03;0.60;;;26.10;39.00;;;;;;5096362;28;20080;-70
2023/07/20 11:44:27;;;;;;;2.45;0.60;;;26.10;39.40;;;;;;5077410;28;20048;-70
2023/07/20 11:47:04;;;;;;;1.60;0.73;;;26.00;39.70;;;;;;5058084;28;20037;-70
2023/07/20 11:49:43;;;;;;;1.60;0.88;;;26.00;39.80;;;;;;5058300;28;20379;-70
2023/07/20 11:52:16;;;;;;;1.35;0.55;;;25.90;39.70;;;;;;5060563;28;20078;-70
2023/07/20 11:54:43;;;;;;;2.13;0.95;;;26.00;39.90;;;;;;5078238;28;20043;-71
2023/07/20 11:57:19;;;;;;;1.45;0.57;;;25.90;40.20;;;;;;5077790;28;20036;-71
2023/07/20 12:00:04;;;;;;;2.63;0.70;;;26.00;40.30;;;;;;5061225;28;20093;-71
2023/07/20 12:02:30;;;;;;;1.98;0.75;;;26.00;40.60;;;;;;5077966;28;20111;-70
2023/07/20 12:04:56;;;;;;;1.45;0.60;;;26.00;40.50;;;;;;5061431;28;20125;-70
2023/07/20 12:07:22;;;;;;;2.03;0.80;;;26.10;40.00;;;;;;5077892;28;20043;-70
2023/07/20 12:10:11;;;;;;;2.65;0.70;;;26.20;40.00;;;;;;5077476;28;20051;-70
2023/07/20 12:12:41;;;;;;;2.13;0.70;;;26.20;38.80;;;;;;5078008;28;20043;-69
2023/07/20 12:15:19;;;;;;;1.70;0.60;;;26.20;38.70;;;;;;5077719;28;20108;-69
2023/07/20 12:17:48;;;;;;;2.50;0.60;;;26.20;39.00;;;;;;5077511;28;20380;-70
2023/07/20 12:20:44;;;;;;;2.67;0.60;;;26.30;39.00;;;;;;5060642;28;20181;-70
2023/07/20 12:23:12;;;;;;;2.80;0.90;;;26.30;38.70;;;;;;5077080;28;20040;-70
2023/07/20 12:25:46;;;;;;;1.63;0.50;;;26.30;38.20;;;;;;5060462;28;20114;-70
2023/07/20 12:28:17;;;;;;;1.05;0.50;;;26.40;38.20;;;;;;5077656;28;20055;-70
2023/07/20 12:30:44;;;;;;;1.95;0.70;;;26.40;37.90;;;;;;5077359;28;20069;-70
2023/07/20 12:33:15;;;;;;;2.08;0.60;;;26.50;38.00;;;;;;5059162;28;20036;-69
2023/07/20 12:35:43;;;;;;;1.27;0.40;;;26.50;37.90;;;;;;5077284;28;20040;-69
2023/07/20 12:38:08;;;;;;;0.47;0.40;;;26.50;37.20;;;;;;5077259;28;20411;-69
2023/07/20 12:40:36;;;;;;;0.93;0.40;;;26.50;37.50;;;;;;5076743;28;20040;-69
2023/07/20 12:43:01;;;;;;;0.68;0.30;;;26.50;37.70;;;;;;5077412;28;20043;-69
2023/07/20 12:45:27;;;;;;;1.33;0.63;;;26.60;37.60;;;;;;5077179;28;20465;-69
2023/07/20 12:47:53;;;;;;;1.10;0.40;;;26.60;37.60;;;;;;5076590;28;20093;-69
2023/07/20 12:50:18;;;;;;;1.25;0.30;;;26.50;37.80;;;;;;5076034;28;20040;-69